Time;durP1;ratioP1;P1;durP2;ratioP2;P2;SDS_P1;SDS_P2;PMS_P1;PMS_P2;Temp;Humidity;BMP_temperature;BMP_pressure;BME280_temperature;BME280_humidity;BME280_pressure;Samples;Min_cycle;Max_cycle;Signal;HPM_P1;HPM_P2
2023/04/20 00:01:43;;;;;;;21.20;12.00;;;;;;;6.93;nan;100148.22;5080258;28;20028;-77
2023/04/20 00:04:08;;;;;;;17.67;12.43;;;;;;;7.09;nan;100216.84;5080819;28;20117;-78
2023/04/20 00:06:34;;;;;;;18.52;11.73;;;;;;;7.12;nan;100219.84;5094345;28;20024;-78
2023/04/20 00:09:00;;;;;;;24.50;12.77;;;;;;;6.83;nan;100187.13;5095785;28;20032;-78
2023/04/20 00:11:27;;;;;;;14.82;10.60;;;;;;;6.63;nan;100183.72;5096324;28;20020;-78
2023/04/20 00:13:52;;;;;;;20.05;11.00;;;;;;;7.28;nan;100260.50;5096384;28;20055;-77
2023/04/20 00:16:18;;;;;;;39.63;11.07;;;;;;;6.69;nan;100188.97;5096299;28;20035;-78
2023/04/20 00:18:45;;;;;;;63.78;12.13;;;;;;;6.91;nan;100241.06;5095753;28;20024;-78
2023/04/20 00:21:11;;;;;;;28.90;11.55;;;;;;;7.06;nan;100262.56;5092753;28;20068;-78
2023/04/20 00:23:36;;;;;;;23.42;12.07;;;;;;;7.05;nan;100242.63;5094735;28;20059;-76
2023/04/20 00:26:02;;;;;;;14.95;11.40;;;;;;;7.00;nan;100235.41;5096169;28;20019;-75
2023/04/20 00:28:27;;;;;;;16.50;11.98;;;;;;;7.05;nan;100244.47;5095385;28;20020;-75
2023/04/20 00:30:53;;;;;;;22.50;11.95;;;;;;;7.08;nan;100244.03;5096412;28;20024;-75
2023/04/20 00:33:18;;;;;;;30.55;12.27;;;;;;;6.99;nan;100238.22;5093524;28;20035;-76
2023/04/20 00:35:43;;;;;;;19.98;11.90;;;;;;;6.93;nan;100239.84;5079436;28;20141;-75
2023/04/20 00:38:09;;;;;;;17.95;11.55;;;;;;;7.01;nan;100254.53;5093219;28;20020;-75
2023/04/20 00:40:34;;;;;;;19.30;13.48;;;;;;;6.97;nan;100241.06;5097664;28;20028;-75
2023/04/20 00:43:10;;;;;;;28.67;13.52;;;;;;;6.86;nan;100225.16;5096472;28;20070;-75
2023/04/20 00:45:36;;;;;;;25.88;13.40;;;;;;;6.89;nan;100248.31;5094946;28;20032;-74
2023/04/20 00:48:01;;;;;;;35.40;13.45;;;;;;;6.77;nan;100248.91;5080442;28;20012;-75
2023/04/20 00:50:27;;;;;;;41.30;13.85;;;;;;;6.80;nan;100245.13;5098106;28;20034;-75
2023/04/20 00:52:53;;;;;;;24.70;13.25;;;;;;;6.82;nan;100243.06;5077709;28;20044;-76
2023/04/20 00:55:20;;;;;;;31.40;13.80;;;;;;;6.88;nan;100246.72;5096242;28;20138;-75
2023/04/20 00:57:45;;;;;;;41.80;13.10;;;;;;;6.72;nan;100229.59;5085354;28;20506;-75
2023/04/20 01:00:11;;;;;;;36.72;12.02;;;;;;;6.53;nan;100211.09;5079406;28;20059;-75
2023/04/20 01:02:36;;;;;;;28.85;12.65;;;;;;;6.63;nan;100230.81;5075358;28;20097;-76
2023/04/20 01:05:02;;;;;;;31.38;13.07;;;;;;;6.77;nan;100242.88;5094423;28;20072;-75
2023/04/20 01:07:28;;;;;;;34.30;12.73;;;;;;;6.66;nan;100233.84;5076193;28;20031;-75
2023/04/20 01:09:55;;;;;;;31.67;12.88;;;;;;;6.51;nan;100239.31;5093721;28;20035;-75
2023/04/20 01:12:20;;;;;;;27.60;13.27;;;;;;;6.52;nan;100234.88;5096114;28;20107;-75
2023/04/20 01:14:46;;;;;;;24.00;12.38;;;;;;;6.48;nan;100231.84;5093664;28;20110;-75
2023/04/20 01:17:13;;;;;;;34.92;12.70;;;;;;;6.51;nan;100236.69;5093893;28;20027;-75
2023/04/20 01:19:39;;;;;;;27.33;12.45;;;;;;;6.48;nan;100237.06;5090702;28;20024;-75
2023/04/20 01:22:06;;;;;;;29.85;12.68;;;;;;;6.42;nan;100229.22;5077778;28;20034;-75
2023/04/20 01:24:32;;;;;;;20.48;12.00;;;;;;;6.36;nan;100230.84;5093341;28;20028;-76
2023/04/20 01:26:58;;;;;;;23.60;11.48;;;;;;;6.07;nan;100227.59;5094794;28;20036;-75
2023/04/20 01:29:23;;;;;;;21.80;11.50;;;;;;;6.64;nan;100303.09;5085489;28;20050;-75
2023/04/20 01:31:49;;;;;;;21.02;11.32;;;;;;;6.03;nan;100238.66;5092746;28;20024;-75
2023/04/20 01:34:16;;;;;;;23.85;10.77;;;;;;;5.94;nan;100235.44;5080809;28;20385;-75
2023/04/20 01:36:41;;;;;;;24.75;10.90;;;;;;;;;;5095019;28;20031;-75
2023/04/20 01:39:07;;;;;;;25.80;10.90;;;;;;;;;;5079785;28;20528;-75
2023/04/20 01:41:32;;;;;;;47.78;11.85;;;;;;;;;;5078547;28;20059;-75
2023/04/20 01:43:58;;;;;;;28.27;11.40;;;;;;;;;;5097032;28;20133;-75
2023/04/20 01:46:23;;;;;;;31.73;11.17;;;;;;;;;;5094524;28;20027;-75
2023/04/20 01:48:48;;;;;;;27.87;10.87;;;;;;;;;;5077100;28;20560;-75
2023/04/20 01:51:13;;;;;;;24.47;11.20;;;;;;;;;;5078641;28;20268;-75
2023/04/20 01:53:38;;;;;;;26.23;11.37;;;;;;;;;;5097529;28;20036;-75
2023/04/20 01:56:04;;;;;;;28.10;11.43;;;;;;;;;;5082897;28;20837;-75
2023/04/20 01:58:30;;;;;;;29.50;10.95;;;;;;;;;;5082563;28;20437;-75
2023/04/20 02:00:55;;;;;;;27.77;10.65;;;;;;;;;;5098943;28;20763;-76
2023/04/20 02:03:20;;;;;;;17.80;10.32;;;;;;;;;;5083534;28;20024;-75
2023/04/20 02:05:46;;;;;;;21.40;11.18;;;;;;;;;;5082366;28;20641;-75
2023/04/20 02:08:11;;;;;;;35.90;11.00;;;;;;;;;;5093963;28;20058;-75
2023/04/20 02:10:36;;;;;;;22.07;10.60;;;;;;;;;;5096552;28;20032;-75
2023/04/20 02:13:02;;;;;;;51.13;11.15;;;;;;;;;;5079151;28;20352;-75
2023/04/20 02:15:27;;;;;;;28.10;11.18;;;;;;;;;;5078834;28;20030;-74
2023/04/20 02:17:52;;;;;;;28.57;11.87;;;;;;;;;;5086559;28;20024;-75
2023/04/20 02:20:18;;;;;;;23.55;11.40;;;;;;;;;;5097992;28;20838;-74
2023/04/20 02:22:44;;;;;;;31.73;11.50;;;;;;;;;;5081490;28;20576;-74
2023/04/20 02:25:09;;;;;;;22.85;11.52;;;;;;;;;;5100597;28;20051;-75
2023/04/20 02:27:35;;;;;;;20.83;11.27;;;;;;;;;;5081756;28;20115;-75
2023/04/20 02:30:00;;;;;;;27.77;11.60;;;;;;;;;;5096818;28;20516;-75
2023/04/20 02:32:25;;;;;;;24.95;12.00;;;;;;;;;;5080967;28;20024;-75
2023/04/20 02:34:51;;;;;;;46.08;13.50;;;;;;;;;;5087749;28;20039;-75
2023/04/20 02:37:16;;;;;;;40.33;12.73;;;;;;;;;;5095909;28;20026;-75
2023/04/20 02:39:41;;;;;;;33.47;12.80;;;;;;;;;;5079726;28;20267;-75
2023/04/20 02:42:06;;;;;;;41.55;12.50;;;;;;;;;;5077438;28;20272;-75
2023/04/20 02:44:32;;;;;;;40.40;13.27;;;;;;;;;;5096101;28;20028;-75
2023/04/20 02:46:57;;;;;;;54.30;13.50;;;;;;;;;;5085372;28;20118;-75
2023/04/20 02:49:22;;;;;;;53.10;14.13;;;;;;;;;;5077310;28;20115;-75
2023/04/20 02:51:47;;;;;;;62.37;13.30;;;;;;;;;;5088378;28;20031;-75
2023/04/20 02:54:13;;;;;;;71.25;14.00;;;;;;;;;;5097440;28;20823;-75
2023/04/20 02:56:38;;;;;;;50.67;13.20;;;;;;;;;;5095823;28;20870;-75
2023/04/20 02:59:03;;;;;;;29.08;14.05;;;;;;;;;;5095113;28;20323;-74
2023/04/20 03:01:29;;;;;;;52.70;14.97;;;;;;;;;;5076781;28;20496;-75
2023/04/20 03:03:54;;;;;;;66.32;14.55;;;;;;;;;;5077633;28;20280;-75
2023/04/20 03:06:20;;;;;;;61.33;13.85;;;;;;;;;;5080196;28;20682;-75
2023/04/20 03:08:45;;;;;;;37.25;13.45;;;;;;;;;;5079629;28;20027;-75
2023/04/20 03:11:10;;;;;;;66.97;13.60;;;;;;;;;;5099240;28;20026;-75
2023/04/20 03:13:35;;;;;;;53.50;13.68;;;;;;;;;;5094476;28;20030;-75
2023/04/20 03:16:01;;;;;;;34.63;13.60;;;;;;;;;;5095860;28;20774;-75
2023/04/20 03:18:26;;;;;;;41.57;13.77;;;;;;;;;;5098101;28;20083;-75
2023/04/20 03:20:52;;;;;;;24.27;12.98;;;;;;;;;;5098947;28;20303;-75
2023/04/20 03:23:17;;;;;;;21.77;13.18;;;;;;;;;;5079762;28;20054;-75
2023/04/20 03:25:43;;;;;;;19.67;12.43;;;;;;;;;;5077826;28;20035;-75
2023/04/20 03:28:09;;;;;;;29.42;12.70;;;;;;;5.63;nan;100251.59;5080196;28;20283;-75
2023/04/20 03:30:34;;;;;;;34.25;13.23;;;;;;;5.60;nan;100241.53;5075767;28;20027;-75
2023/04/20 03:33:00;;;;;;;18.55;12.77;;;;;;;5.63;nan;100235.94;5096989;28;20097;-75
2023/04/20 03:35:26;;;;;;;24.80;13.35;;;;;;;5.69;nan;100248.19;5094568;28;20103;-75
2023/04/20 03:37:51;;;;;;;35.80;13.40;;;;;;;5.66;nan;100252.00;5096269;28;20024;-75
2023/04/20 03:40:17;;;;;;;24.90;13.27;;;;;;;5.61;nan;100236.13;5095878;28;20051;-75
2023/04/20 03:42:42;;;;;;;35.80;13.95;;;;;;;5.63;nan;100236.72;5095353;28;20024;-75
2023/04/20 03:45:08;;;;;;;42.35;14.65;;;;;;;5.81;nan;100261.50;5077405;28;20035;-74
2023/04/20 03:47:33;;;;;;;52.80;15.43;;;;;;;5.70;nan;100250.63;5100169;27;20105;-74
2023/04/20 03:49:59;;;;;;;39.17;14.60;;;;;;;5.75;nan;100276.94;5096304;27;20038;-76
2023/04/20 03:52:24;;;;;;;39.40;14.65;;;;;;;5.67;nan;100269.28;5096654;28;20027;-75
2023/04/20 03:54:50;;;;;;;42.22;13.70;;;;;;;5.60;nan;100265.03;5097181;28;20024;-76
2023/04/20 03:57:15;;;;;;;47.95;13.80;;;;;;;5.61;nan;100257.00;5075850;28;20047;-76
2023/04/20 03:59:41;;;;;;;37.92;15.00;;;;;;;5.57;nan;100253.16;5093176;27;20504;-78
2023/04/20 04:02:06;;;;;;;60.55;16.15;;;;;;;5.71;nan;100274.94;5096520;28;20073;-77
2023/04/20 04:04:32;;;;;;;32.17;16.48;;;;;;;5.67;nan;100269.28;5078253;28;20124;-74
2023/04/20 04:06:57;;;;;;;89.53;16.58;;;;;;;5.67;nan;100266.66;5098363;28;20614;-74
2023/04/20 04:09:25;;;;;;;48.05;16.25;;;;;;;5.75;nan;100284.78;5078882;28;20107;-77
2023/04/20 04:11:51;;;;;;;94.18;18.05;;;;;;;5.74;nan;100280.56;5094992;28;20681;-77
2023/04/20 04:14:16;;;;;;;63.58;16.30;;;;;;;5.77;nan;100284.59;5095258;28;20035;-76
2023/04/20 04:16:41;;;;;;;41.28;15.80;;;;;;;5.69;nan;100293.41;5094126;27;20548;-76
2023/04/20 04:19:07;;;;;;;62.20;18.80;;;;;;;5.79;nan;100285.19;5080173;28;20477;-77
2023/04/20 04:21:33;;;;;;;33.10;19.13;;;;;;;5.78;nan;100273.13;5086901;28;20062;-76
2023/04/20 04:23:58;;;;;;;88.75;22.40;;;;;;;5.83;nan;100294.25;5081582;28;20032;-75
2023/04/20 04:26:24;;;;;;;46.03;22.45;;;;;;;5.44;nan;100219.97;5095842;28;20462;-76
2023/04/20 04:28:50;;;;;;;63.80;22.60;;;;;;;5.69;nan;100264.66;5096987;27;20031;-76
2023/04/20 04:31:18;;;;;;;49.15;19.80;;;;;;;5.71;nan;100280.94;5098343;28;20038;-77
2023/04/20 04:33:45;;;;;;;47.72;20.35;;;;;;;5.78;nan;100274.97;5067571;28;20038;-74
2023/04/20 04:36:11;;;;;;;49.92;20.02;;;;;;;5.82;nan;100279.59;5096028;28;20042;-74
2023/04/20 04:38:37;;;;;;;59.00;18.85;;;;;;;5.60;nan;100246.75;5098479;28;20035;-77
2023/04/20 04:41:03;;;;;;;46.03;15.95;;;;;;;5.68;nan;100259.66;5077112;28;20028;-76
2023/04/20 04:43:29;;;;;;;69.60;15.88;;;;;;;5.63;nan;100272.50;5076842;28;20032;-77
2023/04/20 04:45:57;;;;;;;58.28;13.95;;;;;;;;;;5081099;28;20156;-78
2023/04/20 04:48:22;;;;;;;34.38;12.55;;;;;;;;;;5079116;28;20085;-79
2023/04/20 04:50:47;;;;;;;61.83;14.18;;;;;;;;;;5098502;28;20500;-79
2023/04/20 04:53:13;;;;;;;53.13;13.10;;;;;;;;;;5081175;28;20119;-78
2023/04/20 04:55:38;;;;;;;52.10;12.83;;;;;;;;;;5080288;28;20115;-78
2023/04/20 04:58:03;;;;;;;41.38;14.57;;;;;;;;;;5092618;28;20315;-77
2023/04/20 05:00:30;;;;;;;47.57;13.83;;;;;;;;;;5083552;28;20770;-78
2023/04/20 05:02:56;;;;;;;36.22;14.32;;;;;;;;;;5092929;28;20295;-78
2023/04/20 05:05:22;;;;;;;41.22;14.48;;;;;;;;;;5095934;28;20028;-78
2023/04/20 05:07:47;;;;;;;26.33;13.43;;;;;;;;;;5081469;28;20023;-78
2023/04/20 05:10:12;;;;;;;35.92;14.52;;;;;;;;;;5096128;28;20779;-78
2023/04/20 05:12:38;;;;;;;44.20;15.60;;;;;;;;;;5081106;28;20050;-79
2023/04/20 05:15:03;;;;;;;35.60;15.98;;;;;;;;;;5084414;28;20053;-78
2023/04/20 05:17:28;;;;;;;29.42;15.65;;;;;;;;;;5080208;28;20023;-78
2023/04/20 05:19:54;;;;;;;33.65;17.45;;;;;;;;;;5094611;28;20076;-78
2023/04/20 05:22:19;;;;;;;36.20;18.92;;;;;;;;;;5075796;28;20024;-78
2023/04/20 05:24:44;;;;;;;39.83;21.73;;;;;;;;;;5092554;28;20031;-77
2023/04/20 05:27:10;;;;;;;48.22;21.60;;;;;;;;;;5094386;28;20038;-74
2023/04/20 05:29:36;;;;;;;46.10;24.00;;;;;;;;;;5095851;28;20042;-75
2023/04/20 05:32:01;;;;;;;52.58;25.17;;;;;;;;;;5078295;28;20115;-73
2023/04/20 05:34:26;;;;;;;52.93;25.93;;;;;;;;;;5098469;28;20126;-74
2023/04/20 05:36:53;;;;;;;62.97;28.80;;;;;;;;;;5094019;28;20572;-74
2023/04/20 05:39:19;;;;;;;61.75;28.98;;;;;;;;;;5097678;28;20275;-74
2023/04/20 05:41:44;;;;;;;73.63;31.00;;;;;;;;;;5089230;28;20477;-74
2023/04/20 05:44:10;;;;;;;65.35;31.30;;;;;;;;;;5094777;28;20452;-74
2023/04/20 05:46:35;;;;;;;73.00;33.17;;;;;;;;;;5092290;28;20020;-73
2023/04/20 05:49:00;;;;;;;66.47;32.80;;;;;;;;;;5082389;28;20264;-74
2023/04/20 05:51:29;;;;;;;59.27;30.27;;;;;;;;;;5078480;28;20020;-75
2023/04/20 05:53:54;;;;;;;57.97;29.67;;;;;;;;;;5093842;28;20031;-74
2023/04/20 05:56:19;;;;;;;51.92;27.45;;;;;;;;;;5094451;28;20028;-73
2023/04/20 05:58:45;;;;;;;44.47;25.95;;;;;;;;;;5083205;28;20160;-73
2023/04/20 06:01:10;;;;;;;48.40;23.90;;;;;;;;;;5090981;28;20474;-71
2023/04/20 06:03:35;;;;;;;40.20;22.95;;;;;;;;;;5092164;28;20552;-72
2023/04/20 06:06:01;;;;;;;44.17;24.43;;;;;;;;;;5078400;28;20045;-72
2023/04/20 06:08:26;;;;;;;37.17;21.57;;;;;;;;;;5082926;28;20272;-72
2023/04/20 06:10:55;;;;;;;36.30;20.93;;;;;;;;;;5073204;28;20273;-72
2023/04/20 06:13:21;;;;;;;35.00;19.98;;;;;;;;;;5093198;28;20773;-72
2023/04/20 06:15:46;;;;;;;30.48;19.40;;;;;;;;;;5094764;28;20036;-74
2023/04/20 06:18:11;;;;;;;31.60;19.73;;;;;;;;;;5096192;28;20025;-74
2023/04/20 06:20:38;;;;;;;31.92;19.95;;;;;;;;;;5098420;28;20277;-72
2023/04/20 06:23:03;;;;;;;36.30;22.17;;;;;;;;;;5092530;28;20031;-70
2023/04/20 06:25:28;;;;;;;32.38;19.20;;;;;;;;;;5076029;28;20110;-72
2023/04/20 06:27:54;;;;;;;36.23;19.90;;;;;;;;;;5085105;28;20027;-72
2023/04/20 06:30:19;;;;;;;29.20;18.30;;;;;;;;;;5093178;28;20367;-74
2023/04/20 06:32:44;;;;;;;31.37;18.17;;;;;;;;;;5075048;28;20115;-73
2023/04/20 06:35:10;;;;;;;30.70;18.17;;;;;;;;;;5097446;28;20302;-73
2023/04/20 06:37:35;;;;;;;30.63;17.42;;;;;;;;;;5095503;28;20077;-72
2023/04/20 06:40:01;;;;;;;29.10;17.83;;;;;;;;;;5096484;28;20076;-73
2023/04/20 06:42:26;;;;;;;31.02;18.33;;;;;;;;;;5084200;28;20059;-73
2023/04/20 06:44:51;;;;;;;24.60;16.37;;;;;;;;;;5099325;28;20084;-70
2023/04/20 06:47:16;;;;;;;27.35;17.23;;;;;;;;;;5083623;28;20272;-71
2023/04/20 06:49:42;;;;;;;28.77;17.70;;;;;;;;;;5097733;28;20059;-70
2023/04/20 06:52:07;;;;;;;24.77;16.35;;;;;;;;;;5096916;28;20268;-72
2023/04/20 06:54:32;;;;;;;27.60;16.23;;;;;;;;;;5097544;28;20034;-70
2023/04/20 06:56:58;;;;;;;27.45;17.20;;;;;;;;;;5098717;28;20742;-70
2023/04/20 06:59:23;;;;;;;29.97;17.37;;;;;;;;;;5083143;28;20028;-69
2023/04/20 07:01:48;;;;;;;26.90;16.93;;;;;;;;;;5097331;28;20271;-70
2023/04/20 07:04:13;;;;;;;28.08;15.90;;;;;;;;;;5095488;28;20272;-69
2023/04/20 07:06:39;;;;;;;27.70;16.57;;;;;;;;;;5077009;28;20032;-70
2023/04/20 07:09:04;;;;;;;26.10;16.08;;;;;;;;;;5096262;28;20060;-69
2023/04/20 07:11:30;;;;;;;25.25;15.68;;;;;;;;;;5097440;28;20028;-70
2023/04/20 07:13:55;;;;;;;27.40;16.45;;;;;;;;;;5097030;28;20039;-70
2023/04/20 07:16:21;;;;;;;25.70;16.27;;;;;;;;;;5093695;28;20489;-71
2023/04/20 07:18:46;;;;;;;25.70;15.48;;;;;;;;;;5094354;28;20028;-71
2023/04/20 07:21:11;;;;;;;27.20;15.93;;;;;;;;;;5093558;28;20020;-70
2023/04/20 07:23:36;;;;;;;23.93;15.83;;;;;;;;;;5097205;28;20028;-70
2023/04/20 07:26:02;;;;;;;24.57;15.93;;;;;;;;;;5096247;27;20296;-70
2023/04/20 07:28:27;;;;;;;24.03;15.27;;;;;;;;;;5080846;28;20286;-70
2023/04/20 07:30:52;;;;;;;24.70;14.53;;;;;;;;;;5098171;28;20326;-70
2023/04/20 07:33:17;;;;;;;27.43;16.37;;;;;;;;;;5097886;28;20307;-71
2023/04/20 07:35:43;;;;;;;27.03;15.97;;;;;;;;;;5095732;28;20774;-71
2023/04/20 07:38:08;;;;;;;28.80;17.15;;;;;;;;;;5093792;28;20269;-70
2023/04/20 07:40:33;;;;;;;28.23;16.13;;;;;;;;;;5094330;28;20605;-70
2023/04/20 07:42:58;;;;;;;27.63;15.43;;;;;;;;;;5095565;28;20031;-71
2023/04/20 07:45:24;;;;;;;26.37;15.40;;;;;;;;;;5099152;28;20024;-70
2023/04/20 07:47:51;;;;;;;21.20;13.80;;;;;;;;;;5097923;28;20039;-70
2023/04/20 07:50:16;;;;;;;21.25;13.35;;;;;;;;;;5096545;28;20028;-73
2023/04/20 07:52:43;;;;;;;27.58;14.02;;;;;;;;;;5096633;28;20027;-71
2023/04/20 07:55:10;;;;;;;18.70;13.25;;;;;;;;;;5096546;28;20027;-71
2023/04/20 07:57:36;;;;;;;16.63;11.57;;;;;;;;;;5094605;28;20087;-71
2023/04/20 08:00:04;;;;;;;17.35;10.90;;;;;;;;;;5097224;28;20059;-70
2023/04/20 08:02:30;;;;;;;19.45;10.00;;;;;;;;;;5093814;28;20051;-71
2023/04/20 08:04:56;;;;;;;17.35;9.57;;;;;;;;;;5080459;28;20035;-72
2023/04/20 08:07:21;;;;;;;14.40;8.75;;;;;;;;;;5094841;28;20028;-71
2023/04/20 08:09:46;;;;;;;14.85;10.48;;;;;;;;;;5099469;28;20488;-72
2023/04/20 08:12:12;;;;;;;15.13;10.05;;;;;;;;;;5084040;28;20020;-70
2023/04/20 08:14:37;;;;;;;13.27;9.27;;;;;;;;;;5095157;28;20039;-71
2023/04/20 08:17:02;;;;;;;13.27;7.38;;;;;;;;;;5095547;28;20055;-70
2023/04/20 08:19:27;;;;;;;14.70;8.10;;;;;;;;;;5095914;28;20032;-71
2023/04/20 08:21:53;;;;;;;18.48;7.80;;;;;;;;;;5080317;28;20390;-73
2023/04/20 08:24:19;;;;;;;20.15;7.78;;;;;;;;;;5098012;28;20055;-75
2023/04/20 08:26:44;;;;;;;12.63;7.75;;;;;;;;;;5080720;28;20405;-71
2023/04/20 08:29:10;;;;;;;12.77;8.30;;;;;;;;;;5080934;28;20028;-74
2023/04/20 08:31:35;;;;;;;20.83;8.83;;;;;;;;;;5082478;28;20030;-74
2023/04/20 08:34:01;;;;;;;12.45;7.47;;;;;;;;;;5080008;28;20280;-73
2023/04/20 08:36:26;;;;;;;16.03;7.60;;;;;;;;;;5094525;28;20020;-74
2023/04/20 08:39:24;;;;;;;15.35;7.53;;;;;;;;;;5102047;28;20778;-75
2023/04/20 08:41:54;;;;;;;11.55;7.68;;;;;;;;;;5030437;28;20044;-72
2023/04/20 08:44:19;;;;;;;15.68;8.35;;;;;;;;;;5099055;28;20511;-76
2023/04/20 08:46:45;;;;;;;14.13;8.13;;;;;;;;;;5083459;28;20053;-72
2023/04/20 08:49:11;;;;;;;13.90;8.30;;;;;;;;;;5098335;28;20024;-73
2023/04/20 08:51:38;;;;;;;10.82;7.60;;;;;;;;;;5096327;28;20661;-73
2023/04/20 08:54:04;;;;;;;12.93;7.95;;;;;;;;;;5095962;28;20054;-74
2023/04/20 08:56:39;;;;;;;14.07;8.77;;;;;;;;;;5094055;28;20040;-74
2023/04/20 08:59:08;;;;;;;14.32;7.45;;;;;;;;;;5078707;28;20024;-75
2023/04/20 09:01:34;;;;;;;15.98;8.00;;;;;;;;;;5082353;28;20032;-74
2023/04/20 09:04:00;;;;;;;19.40;7.90;;;;;;;;;;5093350;28;20035;-73
2023/04/20 09:06:25;;;;;;;14.90;8.30;;;;;;;;;;5080587;27;20027;-74
2023/04/20 09:08:51;;;;;;;9.90;6.72;;;;;;;;;;5094159;28;20039;-75
2023/04/20 09:11:23;;;;;;;14.10;6.60;;;;;;;;;;5077924;28;20027;-74
2023/04/20 09:14:11;;;;;;;14.75;7.30;;;;;;;;;;5062542;28;20032;-75
2023/04/20 09:16:38;;;;;;;11.50;5.97;;;;;;;14.15;nan;100362.53;5095967;28;20031;-75
2023/04/20 09:19:04;;;;;;;11.80;6.75;;;;;;;;;;5094937;28;20039;-77
2023/04/20 09:21:30;;;;;;;11.23;7.18;;;;;;;;;;5078635;28;20066;-75
2023/04/20 09:23:59;;;;;;;12.02;6.05;;;;;;;;;;5096963;28;20016;-74
2023/04/20 09:26:24;;;;;;;10.15;6.13;;;;;;;;;;5095697;28;20389;-75
2023/04/20 09:28:50;;;;;;;7.03;5.28;;;;;;;;;;5078918;28;20035;-76
2023/04/20 09:31:20;;;;;;;11.23;4.97;;;;;;;;;;5097325;28;20080;-75
2023/04/20 09:33:54;;;;;;;9.57;4.93;;;;;;;;;;5078901;28;20031;-77
2023/04/20 09:36:20;;;;;;;8.38;4.60;;;;;;;;;;5084700;28;20148;-77
2023/04/20 09:38:45;;;;;;;6.63;4.82;;;;;;;;;;5078210;28;20123;-72
2023/04/20 09:41:10;;;;;;;8.60;5.17;;;;;;;;;;5095307;28;20089;-70
2023/04/20 09:43:36;;;;;;;8.02;5.18;;;;;;;;;;5095627;28;20027;-69
2023/04/20 09:46:02;;;;;;;8.52;5.68;;;;;;;;;;5093770;28;20033;-70
2023/04/20 09:48:27;;;;;;;14.75;6.72;;;;;;;;;;5093302;28;20038;-71
2023/04/20 09:50:53;;;;;;;9.88;5.03;;;;;;;;;;5093488;28;20023;-73
2023/04/20 09:53:18;;;;;;;11.15;5.50;;;;;;;;;;5081752;28;20020;-74
2023/04/20 09:55:47;;;;;;;9.68;4.93;;;;;;;;;;5080580;28;20413;-72
2023/04/20 09:58:13;;;;;;;7.95;4.93;;;;;;;;;;5097196;28;20044;-73
2023/04/20 10:00:38;;;;;;;8.50;5.40;;;;;;;;;;5091230;28;20044;-74
2023/04/20 10:03:05;;;;;;;9.30;5.28;;;;;;;;;;5080199;28;20126;-73
2023/04/20 10:05:38;;;;;;;8.50;5.47;;;;;;;;;;5079189;28;20070;-74
2023/04/20 10:08:03;;;;;;;7.78;5.22;;;;;;;;;;5095154;28;20568;-73
2023/04/20 10:10:29;;;;;;;9.70;6.15;;;;;;;;;;5077170;28;20039;-74
2023/04/20 10:12:55;;;;;;;10.27;5.45;;;;;;;;;;5075839;28;20042;-74
2023/04/20 10:15:20;;;;;;;9.02;5.55;;;;;;;;;;5098239;28;20031;-74
2023/04/20 10:17:46;;;;;;;10.35;6.55;;;;;;;;;;5083331;28;20054;-78
2023/04/20 10:20:40;;;;;;;10.95;6.25;;;;;;;;;;5096901;28;20061;-73
2023/04/20 10:23:08;;;;;;;12.15;6.40;;;;;;;;;;5071340;28;20069;-73
2023/04/20 10:25:33;;;;;;;13.75;6.13;;;;;;;;;;5080058;28;20749;-73
2023/04/20 10:28:00;;;;;;;10.90;5.97;;;;;;;;;;5100786;28;20039;-73
2023/04/20 10:30:26;;;;;;;9.50;6.95;;;;;;;;;;5096100;28;20383;-73
2023/04/20 10:33:08;;;;;;;10.55;7.10;;;;;;;;;;5100167;28;20099;-73
2023/04/20 10:35:49;;;;;;;8.82;6.10;;;;;;;;;;5082353;28;20020;-70
2023/04/20 10:38:26;;;;;;;9.15;6.68;;;;;;;;;;5094724;28;20032;-69
2023/04/20 10:40:51;;;;;;;11.25;6.20;;;;;;;;;;5082625;28;20039;-70
2023/04/20 10:43:18;;;;;;;7.87;6.23;;;;;;;;;;5082643;28;20054;-72
2023/04/20 10:45:43;;;;;;;12.98;6.75;;;;;;;;;;5100578;28;20282;-69
2023/04/20 10:48:09;;;;;;;7.10;5.73;;;;;;;;;;5096691;28;20122;-73
2023/04/20 10:50:35;;;;;;;10.02;6.30;;;;;;;15.82;nan;100310.06;5096467;28;20634;-73
2023/04/20 10:53:01;;;;;;;9.23;5.95;;;;;;;15.83;nan;100311.69;5078616;28;20106;-71
2023/04/20 10:55:27;;;;;;;8.23;6.07;;;;;;;;;;5100933;28;20051;-71
2023/04/20 10:57:52;;;;;;;10.32;6.20;;;;;;;16.27;nan;100374.97;5097174;28;20438;-73
2023/04/20 11:00:21;;;;;;;11.55;6.60;;;;;;;15.79;nan;100307.94;5095389;28;20080;-71
2023/04/20 11:02:49;;;;;;;10.98;6.65;;;;;;;15.78;nan;100294.91;5093301;28;20042;-71
2023/04/20 11:05:15;;;;;;;10.43;6.65;;;;;;;15.78;nan;100293.09;5096763;27;20042;-70
2023/04/20 11:07:50;;;;;;;14.65;7.03;;;;;;;15.78;nan;100297.56;5095799;28;20031;-70
2023/04/20 11:10:15;;;;;;;13.50;6.53;;;;;;;15.79;nan;100292.00;5098167;28;20023;-70
2023/04/20 11:12:41;;;;;;;11.65;6.38;;;;;;;15.94;nan;100294.69;5080500;28;20024;-70
2023/04/20 11:15:08;;;;;;;10.00;6.13;;;;;;;16.10;nan;100300.84;5075816;28;20023;-72
2023/04/20 11:17:35;;;;;;;10.32;6.15;;;;;;;15.94;nan;100297.34;5095385;28;20437;-70
2023/04/20 11:20:09;;;;;;;10.18;6.72;;;;;;;15.88;nan;100297.63;5098772;28;20023;-70
2023/04/20 11:22:37;;;;;;;10.07;6.40;;;;;;;15.97;nan;100300.53;5095211;27;20055;-70
2023/04/20 11:25:08;;;;;;;8.77;6.05;;;;;;;16.01;nan;100296.31;5079388;28;20026;-70
2023/04/20 11:27:34;;;;;;;11.13;6.18;;;;;;;16.02;nan;100303.19;5099372;28;20020;-71
2023/04/20 11:30:04;;;;;;;11.40;7.53;;;;;;;15.80;nan;100264.38;5080907;28;20031;-69
2023/04/20 11:32:31;;;;;;;10.95;7.13;;;;;;;15.94;nan;100296.56;5094935;28;20020;-68
2023/04/20 11:34:59;;;;;;;10.82;7.00;;;;;;;15.74;nan;100274.22;5096954;28;20032;-70
2023/04/20 11:37:25;;;;;;;11.35;6.70;;;;;;;15.78;nan;100297.56;5098273;28;20106;-70
2023/04/20 11:40:08;;;;;;;10.82;6.68;;;;;;;15.68;nan;100282.38;5099669;28;20046;-72
2023/04/20 11:42:34;;;;;;;9.68;7.30;;;;;;;15.71;nan;100288.00;5096739;28;20027;-72
2023/04/20 11:44:59;;;;;;;11.95;7.05;;;;;;;15.63;nan;100285.03;5098075;28;20031;-72
2023/04/20 11:47:25;;;;;;;12.82;6.95;;;;;;;15.65;nan;100283.72;5095634;28;20398;-70
2023/04/20 11:49:50;;;;;;;10.85;6.72;;;;;;;15.65;nan;100291.69;5076792;27;20115;-71
2023/04/20 11:52:16;;;;;;;12.82;6.95;;;;;;;15.73;nan;100285.13;5099719;28;20050;-72
2023/04/20 11:54:41;;;;;;;8.88;6.90;;;;;;;15.79;nan;100285.91;5077696;28;20089;-72
2023/04/20 11:57:07;;;;;;;10.35;6.97;;;;;;;15.86;nan;100292.56;5095640;28;20048;-72
2023/04/20 11:59:32;;;;;;;10.57;6.55;;;;;;;15.86;nan;100286.47;5095961;28;20036;-70
2023/04/20 12:02:02;;;;;;;10.05;6.63;;;;;;;15.85;nan;100285.66;5095533;28;20546;-71
2023/04/20 12:04:28;;;;;;;14.05;7.63;;;;;;;15.83;nan;100287.78;5094496;28;20024;-71
2023/04/20 12:06:53;;;;;;;11.60;6.75;;;;;;;15.87;nan;100282.72;5096631;27;20035;-71
2023/04/20 12:09:19;;;;;;;17.30;7.00;;;;;;;15.89;nan;100284.06;5075339;28;20397;-71
2023/04/20 12:11:44;;;;;;;11.02;5.95;;;;;;;15.83;nan;100279.81;5096165;28;20051;-71
2023/04/20 12:14:10;;;;;;;8.73;6.47;;;;;;;15.84;nan;100285.91;5093274;28;20153;-72
2023/04/20 12:16:35;;;;;;;11.85;6.57;;;;;;;15.78;nan;100271.84;5096093;28;20028;-71
2023/04/20 12:19:00;;;;;;;15.45;6.80;;;;;;;15.88;nan;100276.38;5094833;28;20024;-72
2023/04/20 12:21:26;;;;;;;12.48;7.05;;;;;;;15.90;nan;100275.06;5094652;28;20035;-71
2023/04/20 12:23:51;;;;;;;8.15;6.00;;;;;;;15.98;nan;100279.03;5094297;28;20024;-71
2023/04/20 12:26:17;;;;;;;13.90;6.80;;;;;;;16.05;nan;100270.81;5097522;28;20035;-70
2023/04/20 12:28:44;;;;;;;13.10;7.03;;;;;;;15.93;nan;100250.63;5094389;28;20076;-73
2023/04/20 12:31:09;;;;;;;10.43;6.13;;;;;;;16.04;nan;100267.38;5079410;28;20058;-72
2023/04/20 12:33:34;;;;;;;10.80;6.32;;;;;;;16.02;nan;100279.28;5080200;28;20023;-72
2023/04/20 12:36:00;;;;;;;8.93;6.40;;;;;;;15.94;nan;100262.03;5078094;28;20111;-73
2023/04/20 12:38:25;;;;;;;12.77;6.30;;;;;;;15.96;nan;100265.22;5078541;28;20043;-73
2023/04/20 12:40:51;;;;;;;9.30;6.00;;;;;;;15.97;nan;100264.19;5073272;28;20042;-73
2023/04/20 12:43:16;;;;;;;15.60;6.38;;;;;;;15.98;nan;100270.28;5079284;28;20363;-73
2023/04/20 12:45:41;;;;;;;8.77;5.78;;;;;;;15.95;nan;100261.78;5097941;28;20024;-73
2023/04/20 12:48:07;;;;;;;8.18;5.78;;;;;;;15.99;nan;100250.63;5095284;28;20036;-72
2023/04/20 12:50:32;;;;;;;9.60;6.10;;;;;;;16.12;nan;100258.06;5079905;28;20401;-73
2023/04/20 12:52:57;;;;;;;9.32;6.00;;;;;;;16.14;nan;100216.13;5078741;28;20111;-72
2023/04/20 12:55:25;;;;;;;8.32;5.57;;;;;;;16.40;nan;100240.81;5098700;28;20051;-73
2023/04/20 12:57:50;;;;;;;9.63;5.40;;;;;;;16.51;nan;100244.25;5083337;28;20052;-74
2023/04/20 13:00:16;;;;;;;9.63;5.30;;;;;;;16.53;nan;100239.47;5078297;28;20028;-74
2023/04/20 13:02:42;;;;;;;7.55;4.85;;;;;;;16.75;nan;100247.13;5092652;28;20482;-73